createdAt,value
2022-08-28T00:01:57.410Z,9.06
2022-08-28T00:04:24.135Z,8.57
2022-08-28T00:06:50.826Z,8.66
2022-08-28T00:09:17.393Z,8.67
2022-08-28T00:11:43.891Z,8.65
2022-08-28T00:14:11.079Z,8.90
2022-08-28T00:16:37.642Z,8.54
2022-08-28T00:19:05.730Z,8.62
2022-08-28T00:21:32.706Z,8.15
2022-08-28T00:24:00.444Z,8.65
2022-08-28T00:26:27.030Z,8.74
2022-08-28T00:28:53.535Z,8.65
2022-08-28T00:31:20.036Z,8.72
2022-08-28T00:33:48.182Z,8.93
2022-08-28T00:36:14.809Z,8.50
2022-08-28T00:38:41.326Z,8.91
2022-08-28T00:41:09.007Z,8.93
2022-08-28T00:43:42.433Z,8.87
2022-08-28T00:46:13.332Z,9.14
2022-08-28T00:48:40.193Z,9.03
2022-08-28T00:51:07.910Z,8.78
2022-08-28T00:53:34.560Z,8.56
2022-08-28T00:56:13.333Z,9.10
2022-08-28T00:58:44.845Z,8.78
2022-08-28T01:01:13.429Z,9.09
2022-08-28T01:03:41.113Z,9.01
2022-08-28T01:06:10.101Z,8.99
2022-08-28T01:08:42.397Z,9.04
2022-08-28T01:11:10.607Z,8.74
2022-08-28T01:13:41.119Z,8.95
2022-08-28T01:16:08.926Z,9.06
2022-08-28T01:18:35.582Z,9.02
2022-08-28T01:21:07.819Z,8.66
2022-08-28T01:23:54.015Z,9.11
2022-08-28T01:26:22.004Z,8.75
2022-08-28T01:28:48.705Z,9.39
2022-08-28T01:31:16.839Z,9.29
2022-08-28T01:33:45.210Z,9.26
2022-08-28T01:36:14.651Z,9.45
2022-08-28T01:38:45.106Z,8.79
2022-08-28T01:41:12.634Z,9.25
2022-08-28T01:43:40.289Z,9.57
2022-08-28T01:46:07.089Z,9.77
2022-08-28T01:48:37.022Z,9.60
2022-08-28T01:51:05.254Z,8.87
2022-08-28T01:53:33.546Z,9.46
2022-08-28T01:56:04.634Z,9.44
2022-08-28T01:58:34.911Z,9.68
2022-08-28T02:01:10.138Z,9.74
2022-08-28T02:03:37.143Z,9.62
2022-08-28T02:06:03.900Z,9.38
2022-08-28T02:08:30.378Z,9.51
2022-08-28T02:10:56.877Z,9.53
2022-08-28T02:13:23.423Z,9.91
2022-08-28T02:15:52.443Z,10.22
2022-08-28T02:18:19.464Z,9.93
2022-08-28T02:20:46.093Z,9.36
2022-08-28T02:23:12.679Z,9.39
2022-08-28T02:25:39.265Z,9.53
2022-08-28T02:28:05.877Z,9.38
2022-08-28T02:30:32.498Z,9.14
2022-08-28T02:32:59.021Z,9.45
2022-08-28T02:35:25.539Z,9.18
2022-08-28T02:37:54.582Z,9.17
2022-08-28T02:40:24.440Z,8.97
2022-08-28T02:42:51.389Z,9.13
2022-08-28T02:45:18.981Z,9.22
2022-08-28T02:47:46.738Z,9.66
2022-08-28T02:50:17.400Z,9.03
2022-08-28T02:52:43.907Z,8.92
2022-08-28T02:55:13.295Z,8.86
2022-08-28T02:57:39.857Z,9.45
2022-08-28T03:00:09.376Z,9.06
2022-08-28T03:02:35.939Z,8.58
2022-08-28T03:05:03.221Z,8.81
2022-08-28T03:07:29.737Z,8.60
2022-08-28T03:09:56.742Z,8.49
2022-08-28T03:12:23.280Z,8.31
2022-08-28T03:14:54.386Z,8.19
2022-08-28T03:17:21.203Z,8.22
2022-08-28T03:19:48.557Z,8.39
2022-08-28T03:22:15.192Z,8.05
2022-08-28T03:24:41.675Z,8.68
2022-08-28T03:27:08.254Z,8.42
2022-08-28T03:29:35.038Z,8.09
2022-08-28T03:32:01.626Z,7.74
2022-08-28T03:34:28.125Z,7.98
2022-08-28T03:36:54.699Z,8.04
2022-08-28T03:39:21.299Z,8.08
2022-08-28T03:41:47.812Z,7.89
2022-08-28T03:44:14.314Z,8.08
2022-08-28T03:46:40.883Z,7.76
2022-08-28T03:49:07.377Z,7.70
2022-08-28T03:51:34.864Z,7.37
2022-08-28T03:54:04.198Z,7.74
2022-08-28T03:56:31.130Z,7.74
2022-08-28T03:59:01.029Z,7.86
2022-08-28T04:01:27.966Z,7.75
2022-08-28T04:03:55.878Z,7.98
2022-08-28T04:06:22.388Z,7.91
2022-08-28T04:08:48.892Z,7.67
2022-08-28T04:11:15.379Z,8.27
2022-08-28T04:13:41.874Z,7.76
2022-08-28T04:16:11.518Z,8.14
2022-08-28T04:18:40.483Z,7.92
2022-08-28T04:21:13.067Z,7.85
2022-08-28T04:23:41.807Z,8.16
2022-08-28T04:26:11.795Z,8.49
2022-08-28T04:28:38.274Z,7.98
2022-08-28T04:31:05.927Z,8.47
2022-08-28T04:33:32.432Z,8.65
2022-08-28T04:36:07.425Z,8.25
2022-08-28T04:38:33.968Z,8.09
2022-08-28T04:41:04.841Z,8.13
2022-08-28T04:43:31.387Z,8.22
2022-08-28T04:45:58.343Z,8.14
2022-08-28T04:48:24.883Z,8.13
2022-08-28T04:50:51.403Z,8.52
2022-08-28T04:53:19.820Z,8.22
2022-08-28T04:55:55.078Z,8.44
2022-08-28T04:58:24.092Z,8.94
2022-08-28T05:00:53.241Z,9.10
2022-08-28T05:03:20.934Z,9.21
2022-08-28T05:05:51.102Z,8.89
2022-08-28T05:08:20.763Z,8.83
2022-08-28T05:10:47.931Z,9.27
2022-08-28T05:13:15.979Z,9.16
2022-08-28T05:15:44.986Z,9.19
2022-08-28T05:18:12.877Z,9.01
2022-08-28T05:20:43.532Z,9.38
2022-08-28T05:23:10.949Z,9.49
2022-08-28T05:25:40.263Z,9.68
2022-08-28T05:28:11.784Z,9.91
2022-08-28T05:30:40.930Z,9.20
2022-08-28T05:33:08.952Z,9.84
2022-08-28T05:35:38.629Z,9.33
2022-08-28T05:38:07.114Z,9.59
2022-08-28T05:40:34.504Z,9.86
2022-08-28T05:43:01.069Z,9.91
2022-08-28T05:45:27.695Z,9.92
2022-08-28T05:47:54.199Z,9.58
2022-08-28T05:50:20.740Z,9.83
2022-08-28T05:52:47.284Z,9.63
2022-08-28T05:55:13.927Z,10.10
2022-08-28T05:57:40.997Z,10.32
2022-08-28T06:00:09.459Z,9.69
2022-08-28T06:02:35.970Z,9.67
2022-08-28T06:05:02.512Z,9.58
2022-08-28T06:07:29.007Z,9.84
2022-08-28T06:09:55.889Z,9.61
2022-08-28T06:12:22.395Z,9.22
2022-08-28T06:14:49.214Z,9.28
2022-08-28T06:17:16.546Z,9.47
2022-08-28T06:19:50.021Z,9.36
2022-08-28T06:22:16.543Z,9.29
2022-08-28T06:24:43.041Z,9.39
2022-08-28T06:27:09.522Z,9.16
2022-08-28T06:29:36.057Z,9.16
2022-08-28T06:32:03.272Z,9.04
2022-08-28T06:34:30.190Z,9.57
2022-08-28T06:36:56.703Z,9.27
2022-08-28T06:39:23.398Z,9.30
2022-08-28T06:41:49.935Z,8.31
2022-08-28T06:44:19.357Z,8.92
2022-08-28T06:46:49.056Z,8.18
2022-08-28T06:49:15.608Z,8.29
2022-08-28T06:51:42.088Z,8.83
2022-08-28T06:54:08.837Z,8.06
2022-08-28T06:56:35.738Z,8.20
2022-08-28T06:59:02.427Z,8.37
2022-08-28T07:01:35.044Z,8.76
2022-08-28T07:04:05.213Z,8.68
2022-08-28T07:06:35.638Z,8.78
2022-08-28T07:09:05.142Z,8.52
2022-08-28T07:11:34.365Z,8.41
2022-08-28T07:14:02.173Z,8.63
2022-08-28T07:16:36.482Z,10.16
2022-08-28T07:19:03.004Z,9.07
2022-08-28T07:21:29.567Z,8.03
2022-08-28T07:23:56.041Z,8.43
2022-08-28T07:26:24.941Z,10.47
2022-08-28T07:28:53.261Z,8.55
2022-08-28T07:31:36.473Z,11.60
2022-08-28T07:34:03.096Z,13.98
2022-08-28T07:36:30.167Z,8.65
2022-08-28T07:38:59.396Z,8.69
2022-08-28T07:41:30.345Z,7.96
2022-08-28T07:43:56.970Z,9.01
2022-08-28T07:46:23.515Z,8.77
2022-08-28T07:48:50.018Z,8.34
2022-08-28T07:51:16.503Z,8.05
2022-08-28T07:53:43.004Z,8.21
2022-08-28T07:56:09.493Z,8.31
2022-08-28T07:58:36.008Z,8.19
2022-08-28T08:01:02.545Z,8.18
2022-08-28T08:03:30.763Z,8.43
2022-08-28T08:06:04.514Z,8.18
2022-08-28T08:08:33.172Z,8.44
2022-08-28T08:11:16.566Z,8.58
2022-08-28T08:13:46.009Z,8.65
2022-08-28T08:16:19.468Z,9.37
2022-08-28T08:18:46.266Z,9.14
2022-08-28T08:21:15.213Z,8.86
2022-08-28T08:23:42.157Z,8.51
2022-08-28T08:26:15.805Z,8.83
2022-08-28T08:28:43.468Z,9.14
2022-08-28T08:31:20.103Z,9.04
2022-08-28T08:33:50.090Z,8.86
2022-08-28T08:36:20.818Z,8.24
2022-08-28T08:38:47.492Z,8.16
2022-08-28T08:41:23.227Z,8.24
2022-08-28T08:44:13.559Z,8.45
2022-08-28T08:47:08.613Z,8.41
2022-08-28T08:49:41.724Z,8.84
2022-08-28T08:52:26.644Z,9.12
2022-08-28T08:55:08.064Z,9.19
2022-08-28T08:57:38.113Z,9.35
2022-08-28T09:00:15.073Z,9.99
2022-08-28T09:03:13.079Z,9.90
2022-08-28T09:05:47.115Z,10.31
2022-08-28T09:08:25.311Z,10.26
2022-08-28T09:11:00.522Z,10.06
2022-08-28T09:13:54.595Z,10.78
2022-08-28T09:16:30.956Z,10.43
2022-08-28T09:19:00.178Z,10.20
2022-08-28T09:21:30.650Z,9.92
2022-08-28T09:24:02.050Z,10.72
2022-08-28T09:26:35.765Z,10.51
2022-08-28T09:29:06.677Z,10.92
2022-08-28T09:31:39.455Z,10.36
2022-08-28T09:34:35.444Z,9.78
2022-08-28T09:37:07.498Z,9.75
2022-08-28T09:39:34.340Z,9.46
2022-08-28T09:42:06.087Z,10.17
2022-08-28T09:44:32.754Z,10.36
2022-08-28T09:46:59.675Z,10.74
2022-08-28T09:49:29.752Z,10.80
2022-08-28T09:51:58.662Z,10.04
2022-08-28T09:54:42.216Z,10.57
2022-08-28T09:57:08.772Z,9.81
2022-08-28T09:59:35.267Z,10.53
2022-08-28T10:02:30.108Z,11.15
2022-08-28T10:05:00.163Z,10.94
2022-08-28T10:07:41.603Z,11.31
2022-08-28T10:10:26.216Z,11.67
2022-08-28T10:13:22.985Z,10.93
2022-08-28T10:16:13.012Z,10.68
2022-08-28T10:18:55.976Z,10.94
2022-08-28T10:21:38.899Z,11.29
2022-08-28T10:24:14.359Z,10.99
2022-08-28T10:27:02.459Z,10.39
2022-08-28T10:29:40.836Z,10.36
2022-08-28T10:32:48.896Z,11.24
2022-08-28T10:35:22.890Z,12.08
2022-08-28T10:38:11.384Z,12.25
2022-08-28T10:40:53.856Z,12.17
2022-08-28T10:43:38.538Z,12.35
2022-08-28T10:46:13.339Z,11.93
2022-08-28T10:48:44.564Z,11.81
2022-08-28T10:51:34.949Z,10.79
2022-08-28T10:54:32.770Z,10.96
2022-08-28T10:57:29.446Z,10.79
2022-08-28T10:59:55.971Z,10.71
2022-08-28T11:02:26.824Z,10.66
2022-08-28T11:04:58.664Z,11.11
2022-08-28T11:07:35.830Z,10.90
2022-08-28T11:10:23.770Z,10.48
2022-08-28T11:12:52.296Z,9.82
2022-08-28T11:15:34.251Z,10.16
2022-08-28T11:18:15.097Z,9.79
2022-08-28T11:21:09.648Z,9.57
2022-08-28T11:23:52.608Z,10.37
2022-08-28T11:26:37.678Z,9.80
2022-08-28T11:29:04.300Z,9.63
2022-08-28T11:31:35.257Z,9.71
2022-08-28T11:34:01.852Z,9.54
2022-08-28T11:36:28.289Z,9.08
2022-08-28T11:38:54.725Z,9.36
2022-08-28T11:41:24.856Z,9.21
2022-08-28T11:44:11.270Z,9.47
2022-08-28T11:46:39.867Z,9.65
2022-08-28T11:49:26.238Z,10.48
2022-08-28T11:52:35.094Z,10.65
2022-08-28T11:55:24.546Z,10.03
2022-08-28T11:58:17.747Z,10.06
2022-08-28T12:01:10.796Z,10.75
2022-08-28T12:03:40.967Z,10.52
2022-08-28T12:06:08.756Z,10.91
2022-08-28T12:08:44.104Z,10.60
2022-08-28T12:11:39.292Z,10.69
2022-08-28T12:14:40.522Z,10.48
2022-08-28T12:17:06.967Z,10.50
2022-08-28T12:19:56.286Z,10.89
2022-08-28T12:22:39.248Z,9.75
2022-08-28T12:25:22.335Z,10.03
2022-08-28T12:27:49.614Z,10.32
2022-08-28T12:30:28.638Z,10.37
2022-08-28T12:33:28.730Z,10.39
2022-08-28T12:36:02.757Z,10.50
2022-08-28T12:38:33.188Z,10.61
2022-08-28T12:41:01.608Z,10.47
2022-08-28T12:43:40.869Z,10.09
2022-08-28T12:46:26.968Z,10.11
2022-08-28T12:48:57.274Z,9.95
2022-08-28T12:51:25.729Z,10.02
2022-08-28T12:53:55.856Z,9.96
2022-08-28T12:56:25.260Z,10.09
2022-08-28T12:58:52.615Z,9.87
2022-08-28T13:01:33.866Z,9.74
2022-08-28T13:04:37.990Z,9.36
2022-08-28T13:07:17.303Z,9.94
2022-08-28T13:09:53.143Z,9.80
2022-08-28T13:12:32.007Z,10.06
2022-08-28T13:15:41.699Z,9.59
2022-08-28T13:18:08.323Z,9.36
2022-08-28T13:20:37.961Z,9.32
2022-08-28T13:23:05.107Z,8.62
2022-08-28T13:25:36.239Z,8.90
2022-08-28T13:28:14.964Z,8.88
2022-08-28T13:30:41.525Z,8.90
2022-08-28T13:33:24.263Z,8.65
2022-08-28T13:35:52.887Z,8.67
2022-08-28T13:38:21.866Z,8.78
2022-08-28T13:40:59.626Z,8.75
2022-08-28T13:43:29.920Z,8.57
2022-08-28T13:45:56.496Z,8.55
2022-08-28T13:48:27.402Z,8.74
2022-08-28T13:51:03.509Z,7.94
2022-08-28T13:53:32.248Z,7.77
2022-08-28T13:55:58.841Z,8.39
2022-08-28T13:58:25.898Z,8.28
2022-08-28T14:00:54.148Z,8.20
2022-08-28T14:03:21.244Z,8.08
2022-08-28T14:05:47.723Z,7.73
2022-08-28T14:08:14.318Z,7.84
2022-08-28T14:10:40.861Z,8.21
2022-08-28T14:13:07.326Z,7.76
2022-08-28T14:15:33.847Z,7.95
2022-08-28T14:18:00.514Z,7.49
2022-08-28T14:20:27.404Z,7.50
2022-08-28T14:22:53.885Z,7.55
2022-08-28T14:25:20.530Z,7.17
2022-08-28T14:27:47.031Z,8.20
2022-08-28T14:30:13.979Z,7.32
2022-08-28T14:32:40.501Z,7.24
2022-08-28T14:35:07.415Z,7.18
2022-08-28T14:37:33.950Z,7.29
2022-08-28T14:40:00.539Z,7.31
2022-08-28T14:42:27.345Z,7.23
2022-08-28T14:44:53.861Z,7.26
2022-08-28T14:47:20.538Z,7.33
2022-08-28T14:49:47.170Z,7.12
2022-08-28T14:52:13.697Z,7.76
2022-08-28T14:54:40.219Z,7.20
2022-08-28T14:57:06.789Z,7.40
2022-08-28T14:59:33.305Z,7.13
2022-08-28T15:02:01.071Z,7.27
2022-08-28T15:04:30.602Z,6.99
2022-08-28T15:06:59.282Z,6.93
2022-08-28T15:09:26.661Z,6.88
2022-08-28T15:11:53.226Z,6.30
2022-08-28T15:14:19.953Z,6.89
2022-08-28T15:16:47.869Z,6.81
2022-08-28T15:19:16.450Z,6.73
2022-08-28T15:21:55.166Z,6.73
2022-08-28T15:24:25.282Z,6.90
2022-08-28T15:26:52.233Z,6.99
2022-08-28T15:29:19.057Z,6.89
2022-08-28T15:31:48.293Z,6.76
2022-08-28T15:34:19.101Z,6.79
2022-08-28T15:36:54.715Z,6.29
2022-08-28T15:39:23.944Z,6.22
2022-08-28T15:41:50.892Z,6.46
2022-08-28T15:44:17.393Z,6.47
2022-08-28T15:46:52.552Z,6.63
2022-08-28T15:49:25.922Z,6.59
2022-08-28T15:51:53.609Z,6.41
2022-08-28T15:54:21.994Z,6.55
2022-08-28T15:56:49.762Z,6.73
2022-08-28T15:59:20.157Z,6.48
2022-08-28T16:01:47.398Z,6.61
2022-08-28T16:04:14.202Z,6.86
2022-08-28T16:06:41.058Z,6.88
2022-08-28T16:09:09.381Z,6.71
2022-08-28T16:11:36.734Z,6.83
2022-08-28T16:14:05.269Z,6.73
2022-08-28T16:16:32.744Z,6.82
2022-08-28T16:19:00.301Z,6.84
2022-08-28T16:21:28.876Z,6.65
2022-08-28T16:23:55.789Z,6.64
2022-08-28T16:26:22.306Z,7.08
2022-08-28T16:28:49.159Z,7.15
2022-08-28T16:31:18.874Z,6.89
2022-08-28T16:33:45.881Z,7.47
2022-08-28T16:36:14.086Z,7.33
2022-08-28T16:38:43.200Z,6.98
2022-08-28T16:41:19.601Z,7.33
2022-08-28T16:43:47.244Z,7.40
2022-08-28T16:46:24.121Z,7.46
2022-08-28T16:48:51.861Z,7.85
2022-08-28T16:51:19.839Z,7.38
2022-08-28T16:53:46.699Z,7.79
2022-08-28T16:56:16.921Z,8.02
2022-08-28T16:58:43.833Z,8.05
2022-08-28T17:01:12.217Z,7.77
2022-08-28T17:03:39.582Z,8.39
2022-08-28T17:06:13.312Z,7.56
2022-08-28T17:08:39.875Z,7.82
2022-08-28T17:11:06.776Z,7.91
2022-08-28T17:13:34.655Z,8.15
2022-08-28T17:16:01.423Z,8.27
2022-08-28T17:18:28.719Z,8.13
2022-08-28T17:20:55.217Z,8.75
2022-08-28T17:23:21.746Z,8.61
2022-08-28T17:25:48.311Z,8.75
2022-08-28T17:28:14.946Z,8.58
2022-08-28T17:30:41.519Z,8.77
2022-08-28T17:33:08.023Z,8.75
2022-08-28T17:35:41.950Z,9.06
2022-08-28T17:38:08.938Z,9.18
2022-08-28T17:40:35.508Z,9.40
2022-08-28T17:43:02.161Z,8.47
2022-08-28T17:45:29.113Z,9.08
2022-08-28T17:47:55.628Z,8.94
2022-08-28T17:50:22.351Z,9.23
2022-08-28T17:52:48.958Z,9.12
2022-08-28T17:55:17.012Z,9.28
2022-08-28T17:57:43.613Z,9.37
2022-08-28T18:00:12.607Z,9.32
2022-08-28T18:02:39.742Z,9.22
2022-08-28T18:05:08.176Z,9.00
2022-08-28T18:07:34.791Z,9.07
2022-08-28T18:10:01.300Z,8.80
2022-08-28T18:12:28.023Z,9.02
2022-08-28T18:14:54.534Z,8.54
2022-08-28T18:17:21.093Z,7.94
2022-08-28T18:19:47.602Z,7.73
2022-08-28T18:22:14.651Z,7.34
2022-08-28T18:24:41.614Z,7.19
2022-08-28T18:27:08.129Z,7.27
2022-08-28T18:29:37.869Z,7.11
2022-08-28T18:32:05.634Z,7.15
2022-08-28T18:34:32.199Z,6.95
2022-08-28T18:36:59.426Z,6.69
2022-08-28T18:39:29.410Z,7.19
2022-08-28T18:41:57.509Z,6.85
2022-08-28T18:44:24.495Z,7.24
2022-08-28T18:46:51.362Z,7.14
2022-08-28T18:49:18.001Z,7.11
2022-08-28T18:51:45.505Z,7.03
2022-08-28T18:54:18.039Z,7.03
2022-08-28T18:56:46.873Z,6.97
2022-08-28T18:59:15.574Z,7.11
2022-08-28T19:01:42.382Z,7.47
2022-08-28T19:04:09.015Z,7.59
2022-08-28T19:06:35.604Z,7.44
2022-08-28T19:09:02.834Z,7.50
2022-08-28T19:11:29.360Z,7.28
2022-08-28T19:13:56.089Z,7.30
2022-08-28T19:16:22.688Z,7.41
2022-08-28T19:18:52.170Z,7.45
2022-08-28T19:21:19.624Z,7.66
2022-08-28T19:23:56.155Z,7.66
2022-08-28T19:26:25.100Z,7.23
2022-08-28T19:28:51.916Z,7.49
2022-08-28T19:31:18.542Z,8.36
2022-08-28T19:33:46.662Z,7.67
2022-08-28T19:36:14.214Z,7.70
2022-08-28T19:38:41.357Z,7.51
2022-08-28T19:41:10.751Z,7.36
2022-08-28T19:43:44.269Z,7.59
2022-08-28T19:46:19.233Z,7.37
2022-08-28T19:48:48.355Z,7.32
2022-08-28T19:51:18.290Z,7.29
2022-08-28T19:53:57.726Z,7.20
2022-08-28T19:56:27.857Z,7.39
2022-08-28T19:58:58.819Z,7.45
2022-08-28T20:01:27.498Z,7.33
2022-08-28T20:03:54.037Z,8.04
2022-08-28T20:06:20.572Z,7.89
2022-08-28T20:08:47.043Z,8.14
2022-08-28T20:11:21.206Z,8.01
2022-08-28T20:13:47.705Z,7.86
2022-08-28T20:16:14.208Z,8.72
2022-08-28T20:18:40.728Z,8.09
2022-08-28T20:21:11.014Z,8.16
2022-08-28T20:23:38.226Z,8.41
2022-08-28T20:26:04.919Z,8.34
2022-08-28T20:28:31.413Z,8.37
2022-08-28T20:30:58.114Z,8.29
2022-08-28T20:33:24.666Z,8.17
2022-08-28T20:36:00.308Z,8.09
2022-08-28T20:38:26.844Z,8.17
2022-08-28T20:41:01.578Z,8.62
2022-08-28T20:43:28.051Z,8.08
2022-08-28T20:45:54.594Z,7.96
2022-08-28T20:48:21.120Z,8.05
2022-08-28T20:50:48.114Z,7.52
2022-08-28T20:53:36.976Z,8.17
2022-08-28T20:56:08.685Z,7.83
2022-08-28T20:58:35.778Z,7.94
2022-08-28T21:01:02.318Z,8.27
2022-08-28T21:03:28.908Z,7.85
2022-08-28T21:05:55.400Z,7.90
2022-08-28T21:08:21.909Z,8.00
2022-08-28T21:10:48.423Z,8.05
2022-08-28T21:13:15.050Z,8.31
2022-08-28T21:15:41.537Z,7.89
2022-08-28T21:18:08.131Z,8.11
2022-08-28T21:20:36.922Z,7.86
2022-08-28T21:23:05.720Z,7.80
2022-08-28T21:25:32.663Z,7.50
2022-08-28T21:27:59.155Z,7.77
2022-08-28T21:30:30.684Z,7.99
2022-08-28T21:32:57.165Z,8.18
2022-08-28T21:35:23.773Z,7.96
2022-08-28T21:37:50.262Z,8.18
2022-08-28T21:40:18.373Z,8.05
2022-08-28T21:42:45.076Z,7.83
2022-08-28T21:45:12.437Z,7.99
2022-08-28T21:47:40.241Z,7.38
2022-08-28T21:50:08.393Z,7.75
2022-08-28T21:52:35.303Z,7.64
2022-08-28T21:55:09.215Z,7.88
2022-08-28T21:57:36.084Z,8.05
2022-08-28T22:00:09.213Z,7.91
2022-08-28T22:02:35.936Z,8.13
2022-08-28T22:05:02.593Z,7.71
2022-08-28T22:07:29.103Z,8.15
2022-08-28T22:09:55.733Z,8.00
2022-08-28T22:12:22.332Z,8.15
2022-08-28T22:14:48.840Z,8.09
2022-08-28T22:17:15.418Z,8.02
2022-08-28T22:19:42.092Z,7.84
2022-08-28T22:22:12.126Z,7.82
2022-08-28T22:24:38.667Z,7.82
2022-08-28T22:27:05.760Z,7.88
2022-08-28T22:29:32.577Z,7.92
2022-08-28T22:31:59.129Z,7.69
2022-08-28T22:34:25.685Z,7.98
2022-08-28T22:36:52.152Z,7.80
2022-08-28T22:39:18.649Z,8.03
2022-08-28T22:41:45.153Z,7.67
2022-08-28T22:44:11.750Z,8.01
2022-08-28T22:46:38.325Z,7.80
2022-08-28T22:49:04.883Z,7.74
2022-08-28T22:51:34.308Z,7.77
2022-08-28T22:54:00.885Z,7.46
2022-08-28T22:56:27.368Z,7.52
2022-08-28T22:58:53.887Z,7.82
2022-08-28T23:01:25.091Z,7.61
2022-08-28T23:03:51.652Z,7.31
2022-08-28T23:06:18.732Z,7.61
2022-08-28T23:08:45.262Z,7.54
2022-08-28T23:11:11.826Z,7.43
2022-08-28T23:13:39.801Z,7.95
2022-08-28T23:16:07.726Z,7.77
2022-08-28T23:18:57.563Z,7.32
2022-08-28T23:21:23.884Z,8.07
2022-08-28T23:23:54.054Z,7.95
2022-08-28T23:26:20.915Z,7.81
2022-08-28T23:28:47.466Z,7.86
2022-08-28T23:31:14.063Z,8.11
2022-08-28T23:33:40.884Z,8.01
2022-08-28T23:36:07.781Z,8.23
2022-08-28T23:38:42.839Z,8.06
2022-08-28T23:41:11.039Z,7.93
2022-08-28T23:43:38.161Z,8.14
2022-08-28T23:46:04.919Z,7.83
2022-08-28T23:48:31.468Z,8.18
2022-08-28T23:50:58.554Z,8.35
2022-08-28T23:53:25.700Z,8.61
2022-08-28T23:55:52.213Z,8.34
2022-08-28T23:58:20.742Z,8.36
